Suehiro Maru No.8 — JK5423 — position and weather

sailwx.info

Track history (hours):
 
Tides and Currents Weather Stations Pressure Air Temp Water Temp Dewpoint Dewpoint Depression Visibility Wind Speed Wind Dir Waves Ship Positions

Suehiro Maru No.8

Last reported at 2016-Feb-05 05:33 UTC. Time now 2016-Feb-08 14:33 UTC.
Position N 35°13' E 139°46'.

Length 88 m; draft 3.4 m.

Type: Cargo ship. MMSI: 431400446.

Date/timePositionNaut miles runAvg speedWind from/ knotsBaromVisibWave heightAir tempDewpointWater temp
2016-Feb-05 05:33N 35°13' E 139°46'1111.0
2016-Feb-05 04:33N 35°24' E 139°43'1211.7
2016-Feb-05 03:33N 35°30' E 139°55'4 4.1
2016-Feb-05 02:33N 35°28' E 140°00'0 0.0
2016-Feb-05 01:33N 35°28' E 140°00'0 0.0
2016-Feb-05 00:33N 35°28' E 140°00'0 0.0
2016-Feb-04 23:33N 35°28' E 140°00'7 6.8
2016-Feb-04 22:33N 35°28' E 139°52'1211.8
2016-Feb-04 21:33N 35°18' E 139°45'1312.5
2016-Feb-04 20:33N 35°05' E 139°46'6 2.9
2016-Feb-04 18:33N 35°00' E 139°50'0 0.0
2016-Feb-04 17:13N 35°00' E 139°50'0 0.1
2016-Feb-04 16:33N 35°00' E 139°50'0 0.1
2016-Feb-04 15:33N 35°00' E 139°50'0 0.0
2016-Feb-04 14:21N 35°00' E 139°50'0 0.1
2016-Feb-04 13:33N 35°00' E 139°50'0 0.0
2016-Feb-04 12:33N 35°00' E 139°50'0 0.0
2016-Feb-04 11:33N 35°00' E 139°50'0 0.0
2016-Feb-04 10:33N 35°00' E 139°50'0 0.0
2016-Feb-04 09:33N 35°00' E 139°50'0 0.0
2016-Feb-04 08:33N 35°00' E 139°50'0 0.0
2016-Feb-04 01:10N 35°00' E 139°50'0 0.0
2016-Feb-04 00:33N 35°00' E 139°50'0 0.0
2016-Feb-03 23:33N 35°00' E 139°50'0 0.0
2016-Feb-03 22:33N 35°00' E 139°50'0 0.0
2016-Feb-03 21:33N 35°00' E 139°50'0 0.1
2016-Feb-03 20:33N 35°00' E 139°50'0 0.0
2016-Feb-03 19:33N 35°00' E 139°50'5 4.7
2016-Feb-03 18:33N 34°60' E 139°44'1210.4
2016-Feb-03 17:23N 34°54' E 139°57'1113.5
2016-Feb-03 16:34N 34°60' E 140°09'2913.0
2016-Feb-03 14:18N 35°20' E 140°34'1013.0
2016-Feb-03 13:33N 35°28' E 140°42'1413.3
2016-Feb-03 12:30N 35°39' E 140°52'19 9.7
2016-Feb-03 10:33N 35°56' E 140°42'1 0.4
2016-Feb-03 09:13N 35°56' E 140°41'0 0.0
2016-Feb-03 08:19N 35°56' E 140°41'0 0.0
2016-Feb-03 03:32N 35°56' E 140°41'1 0.7
2016-Feb-03 02:33N 35°55' E 140°41'0 0.0
2016-Feb-03 01:32N 35°55' E 140°41'0 0.0
2016-Feb-03 00:33N 35°55' E 140°41'0 0.0
2016-Feb-02 23:33N 35°55' E 140°41'0 0.0
2016-Feb-02 22:34N 35°55' E 140°41'0 0.0
2016-Feb-02 21:33N 35°55' E 140°41'0 0.0
2016-Feb-02 20:34N 35°55' E 140°41'0 0.0
2016-Feb-02 19:33N 35°55' E 140°41'0 0.0
2016-Feb-02 18:33N 35°55' E 140°41'0 0.0
2016-Feb-02 17:33N 35°55' E 140°41'0 0.0
2016-Feb-02 16:33N 35°55' E 140°41'0 0.0
2016-Feb-02 15:33N 35°55' E 140°41'0 0.0
2016-Feb-02 14:33N 35°55' E 140°41'0 0.0
2016-Feb-02 13:33N 35°55' E 140°41'0 0.0
2016-Feb-02 12:33N 35°55' E 140°41'0 0.0
2016-Feb-02 11:31N 35°55' E 140°41'0 0.0
2016-Feb-02 10:33N 35°55' E 140°41'0 0.0
2016-Feb-02 09:33N 35°55' E 140°41'0 0.0
2016-Feb-02 08:33N 35°55' E 140°41'0 0.0
2016-Feb-02 07:30N 35°55' E 140°41'0 0.0
2016-Feb-02 05:23N 35°55' E 140°41'0 0.0
2016-Feb-02 04:25N 35°55' E 140°41'0 0.0
2016-Feb-02 03:14N 35°55' E 140°41'0 0.0
2016-Feb-02 02:31N 35°55' E 140°41'0 0.0
2016-Feb-02 01:31N 35°55' E 140°41'0 0.0
2016-Feb-02 00:32N 35°55' E 140°41'0 0.1
2016-Feb-01 23:32N 35°55' E 140°41'5 4.8
2016-Feb-01 22:33N 35°60' E 140°42'0 0.1
2016-Feb-01 21:33N 35°60' E 140°42'0 0.0
2016-Feb-01 20:33N 35°60' E 140°42'0 0.0
2016-Feb-01 19:33N 35°60' E 140°42'3 3.1
2016-Feb-01 18:33N 35°57' E 140°45'1211.6
2016-Feb-01 17:32N 35°47' E 140°53'1110.6
2016-Feb-01 16:32N 35°37' E 140°50'1111.6
2016-Feb-01 15:33N 35°28' E 140°43'1511.3
2016-Feb-01 14:16N 35°16' E 140°32'811.2
2016-Feb-01 13:33N 35°09' E 140°26'1211.3
2016-Feb-01 12:27N 35°02' E 140°14'1011.2
2016-Feb-01 11:33N 34°56' E 140°04'1311.4
2016-Feb-01 10:25N 34°49' E 139°51'1011.0
2016-Feb-01 09:30N 34°44' E 139°40'23310.1
2016-Jan-31 10:33N 34°05' E 135°02'1110.6
2016-Jan-31 09:33N 34°15' E 135°07'0 0.1
2016-Jan-31 08:34N 34°15' E 135°07'0 0.0
2016-Jan-31 07:33N 34°15' E 135°07'0 0.0
2016-Jan-31 06:33N 34°15' E 135°07'0 0.0
2016-Jan-31 05:33N 34°15' E 135°07'0 0.0
2016-Jan-31 04:33N 34°15' E 135°07'0 0.0
2016-Jan-31 03:33N 34°15' E 135°07'0 0.0
2016-Jan-31 02:34N 34°15' E 135°07'0 0.0
2016-Jan-31 01:33N 34°15' E 135°07'0 0.0
2016-Jan-31 00:33N 34°15' E 135°07'0 0.0
2016-Jan-30 23:33N 34°15' E 135°07'0 0.0
2016-Jan-30 22:33N 34°15' E 135°07'0 0.4
2016-Jan-30 21:33N 34°14' E 135°06'0 0.0
2016-Jan-30 20:33N 34°14' E 135°06'0 0.0
2016-Jan-30 19:33N 34°14' E 135°06'0 0.0
2016-Jan-30 18:33N 34°14' E 135°06'0 0.0
2016-Jan-30 17:34N 34°14' E 135°06'0 0.0
2016-Jan-30 16:33N 34°14' E 135°06'4 4.2
2016-Jan-30 15:30N 34°18' E 135°04'1212.6
2016-Jan-30 14:33N 34°30' E 135°04'9 8.4
2016-Jan-30 13:32N 34°36' E 134°56'11 0.3
2016-Jan-28 20:32N 34°41' E 134°44'1010.2
2016-Jan-28 19:33N 34°37' E 134°56'9 8.6
2016-Jan-28 18:33N 34°34' E 135°05'1111.3
2016-Jan-28 17:33N 34°23' E 135°02'1111.4
2016-Jan-28 16:33N 34°12' E 134°59'211 9.1
2016-Jan-27 17:17N 34°51' E 139°11'2212.1
2016-Jan-27 15:27N 35°03' E 139°34'1112.0
2016-Jan-27 14:33N 35°10' E 139°44'1211.6
2016-Jan-27 13:33N 35°21' E 139°42'7 6.7
2016-Jan-27 12:34N 35°22' E 139°51'0 0.1
2016-Jan-27 11:33N 35°22' E 139°51'0 0.0
2016-Jan-27 10:33N 35°22' E 139°51'0 0.0
2016-Jan-27 09:33N 35°22' E 139°51'0 0.0
2016-Jan-27 08:33N 35°22' E 139°51'0 0.0
2016-Jan-27 07:33N 35°22' E 139°51'0 0.3
2016-Jan-27 06:33N 35°22' E 139°50'1 0.9
2016-Jan-27 05:33N 35°22' E 139°49'0 0.0
2016-Jan-27 04:33N 35°22' E 139°49'0 0.0
2016-Jan-27 03:33N 35°22' E 139°49'1211.9
2016-Jan-27 02:33N 35°34' E 139°51'4 4.0
2016-Jan-27 01:33N 35°38' E 139°50'0 0.0
2016-Jan-27 00:33N 35°38' E 139°50'0 0.0
2016-Jan-26 23:33N 35°38' E 139°50'0 0.0
2016-Jan-26 22:33N 35°38' E 139°50'0 0.0
2016-Jan-26 21:33N 35°38' E 139°50'1 0.7
2016-Jan-26 20:33N 35°37' E 139°49'3 2.9
2016-Jan-26 19:33N 35°35' E 139°52'0 0.1
2016-Jan-26 18:33N 35°35' E 139°52'1010.4
2016-Jan-26 17:33N 35°25' E 139°47'1111.0
2016-Jan-26 16:33N 35°14' E 139°47'1111.0
2016-Jan-26 15:33N 35°04' E 139°42'6011.6
2016-Jan-26 10:25N 34°34' E 138°39'  
Track history (hours):
 
Tides and Currents Weather Stations Pressure Air Temp Water Temp Dewpoint Dewpoint Depression Visibility Wind Speed Wind Dir Waves Ship Positions

Suehiro Maru No.8

Last reported at 2016-Feb-05 05:33 UTC. Time now 2016-Feb-08 14:33 UTC.
Position N 35°13' E 139°46'.

Length 88 m; draft 3.4 m.

Type: Cargo ship. MMSI: 431400446.

Date/timePositionNaut miles runAvg speedWind from/ knotsBaromVisibWave heightAir tempDewpointWater temp
2016-Feb-05 05:33N 35°13' E 139°46'1111.0
2016-Feb-05 04:33N 35°24' E 139°43'1211.7
2016-Feb-05 03:33N 35°30' E 139°55'4 4.1
2016-Feb-05 02:33N 35°28' E 140°00'0 0.0
2016-Feb-05 01:33N 35°28' E 140°00'0 0.0
2016-Feb-05 00:33N 35°28' E 140°00'0 0.0
2016-Feb-04 23:33N 35°28' E 140°00'7 6.8
2016-Feb-04 22:33N 35°28' E 139°52'1211.8
2016-Feb-04 21:33N 35°18' E 139°45'1312.5
2016-Feb-04 20:33N 35°05' E 139°46'6 2.9
2016-Feb-04 18:33N 35°00' E 139°50'0 0.0
2016-Feb-04 17:13N 35°00' E 139°50'0 0.1
2016-Feb-04 16:33N 35°00' E 139°50'0 0.1
2016-Feb-04 15:33N 35°00' E 139°50'0 0.0
2016-Feb-04 14:21N 35°00' E 139°50'0 0.1
2016-Feb-04 13:33N 35°00' E 139°50'0 0.0
2016-Feb-04 12:33N 35°00' E 139°50'0 0.0
2016-Feb-04 11:33N 35°00' E 139°50'0 0.0
2016-Feb-04 10:33N 35°00' E 139°50'0 0.0
2016-Feb-04 09:33N 35°00' E 139°50'0 0.0
2016-Feb-04 08:33N 35°00' E 139°50'0 0.0
2016-Feb-04 01:10N 35°00' E 139°50'0 0.0
2016-Feb-04 00:33N 35°00' E 139°50'0 0.0
2016-Feb-03 23:33N 35°00' E 139°50'0 0.0
2016-Feb-03 22:33N 35°00' E 139°50'0 0.0
2016-Feb-03 21:33N 35°00' E 139°50'0 0.1
2016-Feb-03 20:33N 35°00' E 139°50'0 0.0
2016-Feb-03 19:33N 35°00' E 139°50'5 4.7
2016-Feb-03 18:33N 34°60' E 139°44'1210.4
2016-Feb-03 17:23N 34°54' E 139°57'1113.5
2016-Feb-03 16:34N 34°60' E 140°09'2913.0
2016-Feb-03 14:18N 35°20' E 140°34'1013.0
2016-Feb-03 13:33N 35°28' E 140°42'1413.3
2016-Feb-03 12:30N 35°39' E 140°52'19 9.7
2016-Feb-03 10:33N 35°56' E 140°42'1 0.4
2016-Feb-03 09:13N 35°56' E 140°41'0 0.0
2016-Feb-03 08:19N 35°56' E 140°41'0 0.0
2016-Feb-03 03:32N 35°56' E 140°41'1 0.7
2016-Feb-03 02:33N 35°55' E 140°41'0 0.0
2016-Feb-03 01:32N 35°55' E 140°41'0 0.0
2016-Feb-03 00:33N 35°55' E 140°41'0 0.0
2016-Feb-02 23:33N 35°55' E 140°41'0 0.0
2016-Feb-02 22:34N 35°55' E 140°41'0 0.0
2016-Feb-02 21:33N 35°55' E 140°41'0 0.0
2016-Feb-02 20:34N 35°55' E 140°41'0 0.0
2016-Feb-02 19:33N 35°55' E 140°41'0 0.0
2016-Feb-02 18:33N 35°55' E 140°41'0 0.0
2016-Feb-02 17:33N 35°55' E 140°41'0 0.0
2016-Feb-02 16:33N 35°55' E 140°41'0 0.0
2016-Feb-02 15:33N 35°55' E 140°41'0 0.0
2016-Feb-02 14:33N 35°55' E 140°41'0 0.0
2016-Feb-02 13:33N 35°55' E 140°41'0 0.0
2016-Feb-02 12:33N 35°55' E 140°41'0 0.0
2016-Feb-02 11:31N 35°55' E 140°41'0 0.0
2016-Feb-02 10:33N 35°55' E 140°41'0 0.0
2016-Feb-02 09:33N 35°55' E 140°41'0 0.0
2016-Feb-02 08:33N 35°55' E 140°41'0 0.0
2016-Feb-02 07:30N 35°55' E 140°41'0 0.0
2016-Feb-02 05:23N 35°55' E 140°41'0 0.0
2016-Feb-02 04:25N 35°55' E 140°41'0 0.0
2016-Feb-02 03:14N 35°55' E 140°41'0 0.0
2016-Feb-02 02:31N 35°55' E 140°41'0 0.0
2016-Feb-02 01:31N 35°55' E 140°41'0 0.0
2016-Feb-02 00:32N 35°55' E 140°41'0 0.1
2016-Feb-01 23:32N 35°55' E 140°41'5 4.8
2016-Feb-01 22:33N 35°60' E 140°42'0 0.1
2016-Feb-01 21:33N 35°60' E 140°42'0 0.0
2016-Feb-01 20:33N 35°60' E 140°42'0 0.0
2016-Feb-01 19:33N 35°60' E 140°42'3 3.1
2016-Feb-01 18:33N 35°57' E 140°45'1211.6
2016-Feb-01 17:32N 35°47' E 140°53'1110.6
2016-Feb-01 16:32N 35°37' E 140°50'1111.6
2016-Feb-01 15:33N 35°28' E 140°43'1511.3
2016-Feb-01 14:16N 35°16' E 140°32'811.2
2016-Feb-01 13:33N 35°09' E 140°26'1211.3
2016-Feb-01 12:27N 35°02' E 140°14'1011.2
2016-Feb-01 11:33N 34°56' E 140°04'1311.4
2016-Feb-01 10:25N 34°49' E 139°51'1011.0
2016-Feb-01 09:30N 34°44' E 139°40'23310.1
2016-Jan-31 10:33N 34°05' E 135°02'1110.6
2016-Jan-31 09:33N 34°15' E 135°07'0 0.1
2016-Jan-31 08:34N 34°15' E 135°07'0 0.0
2016-Jan-31 07:33N 34°15' E 135°07'0 0.0
2016-Jan-31 06:33N 34°15' E 135°07'0 0.0
2016-Jan-31 05:33N 34°15' E 135°07'0 0.0
2016-Jan-31 04:33N 34°15' E 135°07'0 0.0
2016-Jan-31 03:33N 34°15' E 135°07'0 0.0
2016-Jan-31 02:34N 34°15' E 135°07'0 0.0
2016-Jan-31 01:33N 34°15' E 135°07'0 0.0
2016-Jan-31 00:33N 34°15' E 135°07'0 0.0
2016-Jan-30 23:33N 34°15' E 135°07'0 0.0
2016-Jan-30 22:33N 34°15' E 135°07'0 0.4
2016-Jan-30 21:33N 34°14' E 135°06'0 0.0
2016-Jan-30 20:33N 34°14' E 135°06'0 0.0
2016-Jan-30 19:33N 34°14' E 135°06'0 0.0
2016-Jan-30 18:33N 34°14' E 135°06'0 0.0
2016-Jan-30 17:34N 34°14' E 135°06'0 0.0
2016-Jan-30 16:33N 34°14' E 135°06'4 4.2
2016-Jan-30 15:30N 34°18' E 135°04'1212.6
2016-Jan-30 14:33N 34°30' E 135°04'9 8.4
2016-Jan-30 13:32N 34°36' E 134°56'11 0.3
2016-Jan-28 20:32N 34°41' E 134°44'1010.2
2016-Jan-28 19:33N 34°37' E 134°56'9 8.6
2016-Jan-28 18:33N 34°34' E 135°05'1111.3
2016-Jan-28 17:33N 34°23' E 135°02'1111.4
2016-Jan-28 16:33N 34°12' E 134°59'211 9.1
2016-Jan-27 17:17N 34°51' E 139°11'2212.1
2016-Jan-27 15:27N 35°03' E 139°34'1112.0
2016-Jan-27 14:33N 35°10' E 139°44'1211.6
2016-Jan-27 13:33N 35°21' E 139°42'7 6.7
2016-Jan-27 12:34N 35°22' E 139°51'0 0.1
2016-Jan-27 11:33N 35°22' E 139°51'0 0.0
2016-Jan-27 10:33N 35°22' E 139°51'0 0.0
2016-Jan-27 09:33N 35°22' E 139°51'0 0.0
2016-Jan-27 08:33N 35°22' E 139°51'0 0.0
2016-Jan-27 07:33N 35°22' E 139°51'0 0.3
2016-Jan-27 06:33N 35°22' E 139°50'1 0.9
2016-Jan-27 05:33N 35°22' E 139°49'0 0.0
2016-Jan-27 04:33N 35°22' E 139°49'0 0.0
2016-Jan-27 03:33N 35°22' E 139°49'1211.9
2016-Jan-27 02:33N 35°34' E 139°51'4 4.0
2016-Jan-27 01:33N 35°38' E 139°50'0 0.0
2016-Jan-27 00:33N 35°38' E 139°50'0 0.0
2016-Jan-26 23:33N 35°38' E 139°50'0 0.0
2016-Jan-26 22:33N 35°38' E 139°50'0 0.0
2016-Jan-26 21:33N 35°38' E 139°50'1 0.7
2016-Jan-26 20:33N 35°37' E 139°49'3 2.9
2016-Jan-26 19:33N 35°35' E 139°52'0 0.1
2016-Jan-26 18:33N 35°35' E 139°52'1010.4
2016-Jan-26 17:33N 35°25' E 139°47'1111.0
2016-Jan-26 16:33N 35°14' E 139°47'1111.0
2016-Jan-26 15:33N 35°04' E 139°42'6011.6
2016-Jan-26 10:25N 34°34' E 138°39'  

Dump ship's entire track history